createdAt,value
2022-12-01T00:00:14.805Z,18.58
2022-12-01T00:03:17.451Z,17.40
2022-12-01T00:06:21.470Z,17.80
2022-12-01T00:09:42.559Z,19.42
2022-12-01T00:12:44.937Z,20.08
2022-12-01T00:15:47.993Z,16.55
2022-12-01T00:18:52.175Z,19.12
2022-12-01T00:21:54.697Z,17.30
2022-12-01T00:24:57.356Z,19.70
2022-12-01T00:28:00.038Z,16.65
2022-12-01T00:31:08.153Z,19.48
2022-12-01T00:34:26.088Z,25.23
2022-12-01T00:37:31.084Z,21.85
2022-12-01T00:40:35.380Z,19.20
2022-12-01T00:43:37.823Z,19.92
2022-12-01T00:46:40.430Z,18.48
2022-12-01T00:49:43.769Z,18.10
2022-12-01T00:52:46.499Z,19.23
2022-12-01T00:55:48.774Z,18.75
2022-12-01T00:58:51.204Z,19.73
2022-12-01T01:01:53.369Z,17.87
2022-12-01T01:04:56.113Z,19.42
2022-12-01T01:07:58.354Z,20.90
2022-12-01T01:11:01.726Z,20.37
2022-12-01T01:14:04.367Z,21.52
2022-12-01T01:17:07.023Z,17.98
2022-12-01T01:20:11.237Z,20.17
2022-12-01T01:23:13.794Z,22.10
2022-12-01T01:26:21.829Z,22.37
2022-12-01T01:29:24.305Z,19.93
2022-12-01T01:32:26.652Z,19.15
2022-12-01T01:35:29.096Z,20.05
2022-12-01T01:38:31.991Z,20.73
2022-12-01T01:41:34.470Z,20.95
2022-12-01T01:44:57.579Z,22.15
2022-12-01T01:48:01.427Z,20.48
2022-12-01T01:51:04.303Z,20.00
2022-12-01T01:54:15.519Z,19.23
2022-12-01T01:57:25.889Z,23.25
2022-12-01T02:00:29.304Z,20.10
2022-12-01T02:03:37.106Z,15.63
2022-12-01T02:06:39.356Z,16.73
2022-12-01T02:09:41.912Z,18.65
2022-12-01T02:13:05.768Z,24.20
2022-12-01T02:16:26.560Z,20.33
2022-12-01T02:19:47.936Z,23.58
2022-12-01T02:23:16.966Z,20.67
2022-12-01T02:26:29.501Z,21.02
2022-12-01T02:29:57.138Z,21.50
2022-12-01T02:32:59.228Z,20.08
2022-12-01T02:36:17.634Z,21.70
2022-12-01T02:39:34.590Z,21.90
2022-12-01T02:42:52.500Z,23.42
2022-12-01T02:49:17.075Z,21.35
2022-12-01T02:52:23.712Z,19.05
2022-12-01T02:55:26.112Z,22.85
2022-12-01T02:58:28.296Z,19.87
2022-12-01T03:01:35.643Z,19.52
2022-12-01T03:04:40.935Z,24.95
2022-12-01T03:07:59.324Z,19.85
2022-12-01T03:11:02.946Z,18.30
2022-12-01T03:14:18.535Z,21.55
2022-12-01T03:17:29.960Z,21.90
2022-12-01T03:20:40.032Z,20.70
2022-12-01T03:23:47.214Z,22.13
2022-12-01T03:26:56.885Z,25.10
2022-12-01T03:30:01.585Z,16.73
2022-12-01T03:33:09.803Z,21.42
2022-12-01T03:36:23.438Z,23.83
2022-12-01T03:39:37.318Z,19.20
2022-12-01T03:42:46.539Z,17.08
2022-12-01T03:46:09.157Z,19.33
2022-12-01T03:49:13.876Z,23.55
2022-12-01T03:52:20.429Z,22.30
2022-12-01T03:55:31.690Z,25.50
2022-12-01T03:58:42.903Z,20.37
2022-12-01T04:01:45.692Z,18.83
2022-12-01T04:04:48.151Z,21.42
2022-12-01T04:07:50.464Z,31.92
2022-12-01T04:10:52.948Z,27.37
2022-12-01T04:13:55.116Z,22.95
2022-12-01T04:16:57.851Z,23.75
2022-12-01T04:20:00.673Z,22.60
2022-12-01T04:23:03.529Z,21.30
2022-12-01T04:26:06.692Z,22.92
2022-12-01T04:29:11.679Z,21.27
2022-12-01T04:32:14.902Z,19.77
2022-12-01T04:35:17.326Z,22.25
2022-12-01T04:38:19.422Z,22.33
2022-12-01T04:41:21.941Z,18.92
2022-12-01T04:44:24.163Z,18.42
2022-12-01T04:47:26.563Z,25.33
2022-12-01T04:50:30.120Z,17.27
2022-12-01T04:53:32.970Z,20.50
2022-12-01T04:56:35.967Z,18.50
2022-12-01T04:59:38.827Z,20.52
2022-12-01T05:02:43.950Z,19.55
2022-12-01T05:05:47.094Z,24.05
2022-12-01T05:08:50.747Z,21.75
2022-12-01T05:11:53.608Z,18.83
2022-12-01T05:14:56.381Z,24.37
2022-12-01T05:18:01.981Z,19.87
2022-12-01T05:21:07.055Z,22.17
2022-12-01T05:24:12.307Z,26.25
2022-12-01T05:27:16.025Z,25.88
2022-12-01T05:30:18.803Z,24.10
2022-12-01T05:33:22.905Z,28.33
2022-12-01T05:36:27.258Z,23.87
2022-12-01T05:39:29.834Z,26.25
2022-12-01T05:42:33.275Z,22.37
2022-12-01T05:45:39.746Z,23.10
2022-12-01T05:48:42.541Z,27.55
2022-12-01T05:51:44.724Z,29.77
2022-12-01T05:54:47.367Z,29.30
2022-12-01T05:57:49.536Z,34.72
2022-12-01T06:00:52.769Z,41.50
2022-12-01T06:03:55.499Z,33.05
2022-12-01T06:06:58.175Z,36.20
2022-12-01T06:10:02.531Z,29.10
2022-12-01T06:13:05.425Z,29.42
2022-12-01T06:16:09.368Z,28.25
2022-12-01T06:19:11.980Z,30.95
2022-12-01T06:22:15.083Z,33.53
2022-12-01T06:25:19.939Z,31.92
2022-12-01T06:28:22.736Z,28.15
2022-12-01T06:31:26.649Z,26.62
2022-12-01T06:34:29.703Z,23.70
2022-12-01T06:37:32.785Z,28.55
2022-12-01T06:40:37.579Z,23.20
2022-12-01T06:43:42.093Z,26.08
2022-12-01T06:46:46.899Z,26.67
2022-12-01T06:49:49.689Z,25.80
2022-12-01T06:52:52.992Z,28.38
2022-12-01T06:56:04.574Z,28.27
2022-12-01T06:59:07.747Z,31.35
2022-12-01T07:02:13.719Z,31.05
2022-12-01T07:05:16.914Z,37.00
2022-12-01T07:08:19.129Z,39.20
2022-12-01T07:11:23.717Z,28.42
2022-12-01T07:14:26.901Z,26.60
2022-12-01T07:17:29.861Z,28.08
2022-12-01T07:20:32.029Z,31.77
2022-12-01T07:23:34.884Z,29.45
2022-12-01T07:26:37.213Z,32.42
2022-12-01T07:29:40.437Z,29.12
2022-12-01T07:32:42.623Z,41.17
2022-12-01T07:35:45.202Z,35.78
2022-12-01T07:38:48.002Z,37.00
2022-12-01T07:41:50.872Z,31.52
2022-12-01T07:44:53.187Z,36.92
2022-12-01T07:47:55.673Z,52.90
2022-12-01T07:50:57.877Z,48.15
2022-12-01T07:54:06.411Z,33.28
2022-12-01T07:57:08.711Z,38.70
2022-12-01T08:00:11.866Z,41.92
2022-12-01T08:03:14.270Z,46.75
2022-12-01T08:06:17.691Z,36.42
2022-12-01T08:09:20.993Z,41.92
2022-12-01T08:12:24.478Z,45.88
2022-12-01T08:15:26.801Z,44.58
2022-12-01T08:18:29.482Z,36.80
2022-12-01T08:21:32.125Z,43.83
2022-12-01T08:24:34.572Z,44.40
2022-12-01T08:27:37.298Z,35.92
2022-12-01T08:30:39.881Z,41.75
2022-12-01T08:33:42.233Z,34.42
2022-12-01T08:36:44.735Z,40.50
2022-12-01T08:39:47.483Z,49.15
2022-12-01T08:42:52.194Z,38.55
2022-12-01T08:45:57.134Z,33.75
2022-12-01T08:49:00.601Z,34.97
2022-12-01T08:52:02.812Z,40.53
2022-12-01T08:55:06.465Z,48.45
2022-12-01T08:58:08.734Z,34.75
2022-12-01T09:01:13.415Z,35.13
2022-12-01T09:04:15.636Z,37.85
2022-12-01T09:07:25.864Z,39.65
2022-12-01T09:10:28.783Z,38.38
2022-12-01T09:13:35.625Z,30.23
2022-12-01T09:16:38.189Z,36.17
2022-12-01T09:19:40.864Z,35.10
2022-12-01T09:22:43.029Z,37.53
2022-12-01T09:25:45.629Z,34.47
2022-12-01T09:28:59.096Z,30.20
2022-12-01T09:32:01.672Z,41.28
2022-12-01T09:35:03.988Z,31.83
2022-12-01T09:38:06.733Z,33.88
2022-12-01T09:41:23.771Z,29.67
2022-12-01T09:44:26.207Z,24.80
2022-12-01T09:47:31.675Z,27.52
2022-12-01T09:50:35.954Z,18.90
2022-12-01T09:53:38.816Z,18.60
2022-12-01T09:56:47.155Z,17.05
2022-12-01T09:59:51.812Z,19.65
2022-12-01T10:03:01.961Z,20.55
2022-12-01T10:06:32.035Z,22.40
2022-12-01T10:09:46.599Z,20.98
2022-12-01T10:12:50.124Z,24.10
2022-12-01T10:16:29.104Z,21.48
2022-12-01T10:19:50.113Z,26.08
2022-12-01T10:23:28.692Z,22.85
2022-12-01T10:27:08.698Z,24.02
2022-12-01T10:30:17.195Z,26.40
2022-12-01T10:33:24.384Z,20.55
2022-12-01T10:36:27.732Z,21.23
2022-12-01T10:39:45.009Z,22.60
2022-12-01T10:42:48.943Z,20.88
2022-12-01T10:45:52.400Z,24.30
2022-12-01T10:48:59.648Z,21.80
2022-12-01T10:52:02.422Z,27.90
2022-12-01T10:55:29.090Z,18.50
2022-12-01T10:58:43.850Z,20.65
2022-12-01T11:01:48.168Z,29.80
2022-12-01T11:05:03.078Z,26.00
2022-12-01T11:08:06.166Z,26.55
2022-12-01T11:11:30.492Z,23.87
2022-12-01T11:14:49.681Z,31.77
2022-12-01T11:21:26.319Z,21.70
2022-12-01T11:28:37.847Z,28.08
2022-12-01T11:31:50.758Z,22.00
2022-12-01T11:35:02.529Z,24.25
2022-12-01T11:38:29.293Z,25.12
2022-12-01T11:41:36.395Z,25.17
2022-12-01T11:45:17.191Z,25.60
2022-12-01T11:48:20.981Z,23.67
2022-12-01T11:51:31.856Z,20.98
2022-12-01T11:54:34.436Z,22.08
2022-12-01T11:57:43.222Z,21.10
2022-12-01T12:00:54.542Z,25.67
2022-12-01T12:04:00.584Z,23.35
2022-12-01T12:07:20.534Z,19.85
2022-12-01T12:11:10.528Z,21.67
2022-12-01T12:14:38.673Z,21.73
2022-12-01T12:17:54.465Z,23.95
2022-12-01T12:21:44.017Z,22.65
2022-12-01T12:25:10.741Z,19.02
2022-12-01T12:28:28.070Z,21.58
2022-12-01T12:31:49.744Z,21.05
2022-12-01T12:35:28.115Z,25.65
2022-12-01T12:39:19.256Z,25.08
2022-12-01T12:42:32.922Z,20.17
2022-12-01T12:49:46.735Z,21.98
2022-12-01T12:52:57.711Z,18.58
2022-12-01T12:56:05.804Z,22.02
2022-12-01T12:59:18.595Z,24.08
2022-12-01T13:02:36.353Z,22.42
2022-12-01T13:05:50.570Z,22.62
2022-12-01T13:09:21.017Z,22.50
2022-12-01T13:12:40.113Z,19.67
2022-12-01T13:15:44.702Z,20.70
2022-12-01T13:19:04.784Z,19.87
2022-12-01T13:22:16.510Z,25.00
2022-12-01T13:25:38.318Z,21.95
2022-12-01T13:28:53.077Z,25.10
2022-12-01T13:31:55.634Z,19.00
2022-12-01T13:34:59.145Z,25.52
2022-12-01T13:38:26.345Z,24.15
2022-12-01T13:41:33.536Z,24.48
2022-12-01T13:44:50.485Z,31.73
2022-12-01T13:47:55.174Z,28.52
2022-12-01T13:51:02.600Z,18.40
2022-12-01T13:54:29.089Z,26.20
2022-12-01T13:57:34.207Z,20.73
2022-12-01T14:00:36.564Z,21.17
2022-12-01T14:03:40.787Z,25.05
2022-12-01T14:06:53.043Z,23.95
2022-12-01T14:10:07.372Z,18.33
2022-12-01T14:13:22.592Z,40.30
2022-12-01T14:16:42.653Z,18.75
2022-12-01T14:19:52.206Z,13.25
2022-12-01T14:23:18.505Z,25.37
2022-12-01T14:26:23.358Z,19.90
2022-12-01T14:29:30.859Z,18.95
2022-12-01T14:32:33.098Z,12.57
2022-12-01T14:35:39.121Z,21.25
2022-12-01T14:38:44.914Z,21.42
2022-12-01T14:41:58.603Z,15.80
2022-12-01T14:45:04.808Z,22.27
2022-12-01T14:48:25.610Z,25.58
2022-12-01T14:51:33.536Z,22.60
2022-12-01T14:54:48.080Z,13.15
2022-12-01T14:58:01.096Z,19.92
2022-12-01T15:01:06.810Z,18.05
2022-12-01T15:04:09.089Z,22.37
2022-12-01T15:07:12.751Z,18.40
2022-12-01T15:10:36.987Z,36.20
2022-12-01T15:13:39.578Z,20.15
2022-12-01T15:16:43.595Z,23.83
2022-12-01T15:19:46.521Z,23.23
2022-12-01T15:22:51.153Z,17.60
2022-12-01T15:25:55.477Z,20.15
2022-12-01T15:29:19.360Z,21.17
2022-12-01T15:32:24.949Z,31.08
2022-12-01T15:35:27.485Z,33.60
2022-12-01T15:38:34.728Z,43.28
2022-12-01T15:41:40.392Z,29.98
2022-12-01T15:44:42.852Z,23.67
2022-12-01T15:47:48.063Z,26.15
2022-12-01T15:51:03.287Z,36.42
2022-12-01T15:54:05.672Z,27.30
2022-12-01T15:57:12.911Z,22.13
2022-12-01T16:00:20.639Z,23.67
2022-12-01T16:03:23.569Z,22.37
2022-12-01T16:06:35.710Z,18.77
2022-12-01T16:10:00.591Z,33.65
2022-12-01T16:13:53.435Z,45.25
2022-12-01T17:44:36.987Z,31.60
2022-12-01T17:48:43.003Z,30.08
2022-12-01T18:07:35.575Z,46.00
2022-12-01T18:24:29.325Z,50.88
2022-12-01T18:34:53.074Z,54.72
2022-12-01T18:52:44.631Z,48.65
2022-12-01T18:56:28.816Z,50.83
2022-12-01T19:03:25.879Z,64.82
2022-12-01T19:06:51.976Z,53.45
2022-12-01T19:10:10.163Z,65.25
2022-12-01T19:20:30.036Z,59.35
2022-12-01T19:28:01.149Z,62.50
2022-12-01T19:31:40.336Z,53.80
2022-12-01T19:38:54.844Z,60.35
